createdAt,value
2017-11-19T00:01:03.685Z,5.29
2017-11-19T00:06:03.487Z,5.29
2017-11-19T00:11:03.713Z,5.39
2017-11-19T00:16:03.540Z,5.39
2017-11-19T00:21:03.457Z,5.29
2017-11-19T00:26:03.544Z,5.29
2017-11-19T00:31:03.489Z,5.19
2017-11-19T00:36:03.282Z,5.29
2017-11-19T00:41:03.504Z,5.29
2017-11-19T00:46:03.471Z,5.39
2017-11-19T00:51:03.266Z,5.39
2017-11-19T00:56:03.118Z,5.49
2017-11-19T01:01:03.940Z,5.49
2017-11-19T01:06:03.797Z,5.29
2017-11-19T01:11:03.015Z,5.19
2017-11-19T01:16:03.823Z,5.19
2017-11-19T01:21:03.754Z,5.19
2017-11-19T01:26:03.640Z,5.19
2017-11-19T01:31:03.462Z,5.11
2017-11-19T01:36:03.291Z,5.14
2017-11-19T01:41:03.539Z,5.03
2017-11-19T01:46:03.348Z,4.83
2017-11-19T01:51:03.612Z,5.08
2017-11-19T01:56:03.337Z,5.04
2017-11-19T02:01:03.217Z,4.87
2017-11-19T02:06:03.015Z,4.98
2017-11-19T02:11:03.246Z,4.81
2017-11-19T02:16:03.100Z,4.98
2017-11-19T02:21:04.013Z,4.71
2017-11-19T02:26:03.820Z,4.71
2017-11-19T02:31:03.626Z,4.81
2017-11-19T02:36:03.574Z,4.83
2017-11-19T02:41:03.821Z,4.90
2017-11-19T02:46:03.637Z,4.63
2017-11-19T02:51:03.438Z,4.73
2017-11-19T02:56:03.327Z,4.59
2017-11-19T03:01:03.169Z,4.40
2017-11-19T03:06:03.037Z,4.31
2017-11-19T03:11:03.252Z,4.31
2017-11-19T03:16:03.071Z,4.31
2017-11-19T03:21:03.941Z,4.23
2017-11-19T03:26:03.101Z,4.21
2017-11-19T03:31:03.891Z,4.13
2017-11-19T03:36:03.713Z,4.03
2017-11-19T03:41:03.970Z,4.11
2017-11-19T03:46:03.777Z,4.13
2017-11-19T03:51:03.588Z,4.00
2017-11-19T03:56:03.567Z,4.01
2017-11-19T04:01:03.359Z,4.14
2017-11-19T04:06:03.192Z,4.11
2017-11-19T04:11:03.520Z,4.13
2017-11-19T04:16:03.359Z,4.14
2017-11-19T04:21:03.313Z,4.14
2017-11-19T04:26:03.127Z,4.16
2017-11-19T04:31:03.928Z,4.16
2017-11-19T04:36:03.722Z,4.09
2017-11-19T04:41:03.960Z,4.24
2017-11-19T04:46:03.771Z,4.24
2017-11-19T04:51:03.604Z,4.27
2017-11-19T04:56:03.413Z,4.27
2017-11-19T05:01:03.201Z,4.27
2017-11-19T05:06:03.446Z,4.19
2017-11-19T05:11:03.689Z,3.99
2017-11-19T05:16:03.543Z,3.99
2017-11-19T05:21:03.410Z,3.94
2017-11-19T05:26:03.042Z,4.11
2017-11-19T05:31:03.877Z,3.87
2017-11-19T05:36:03.770Z,3.96
2017-11-19T05:41:03.954Z,4.13
2017-11-19T05:46:03.829Z,4.13
2017-11-19T05:51:03.831Z,3.94
2017-11-19T05:56:03.669Z,3.94
2017-11-19T06:01:03.477Z,3.97
2017-11-19T06:06:03.293Z,3.89
2017-11-19T06:11:03.866Z,4.14
2017-11-19T06:16:03.686Z,4.14
2017-11-19T06:21:03.565Z,4.21
2017-11-19T06:26:03.404Z,4.36
2017-11-19T06:31:03.226Z,4.10
2017-11-19T06:36:03.055Z,4.04
2017-11-19T06:41:03.242Z,4.09
2017-11-19T06:46:03.065Z,4.00
2017-11-19T06:51:03.876Z,4.10
2017-11-19T06:56:03.696Z,4.10
2017-11-19T07:01:03.510Z,4.04
2017-11-19T07:06:03.663Z,4.10
2017-11-19T07:11:03.636Z,3.81
2017-11-19T07:16:03.459Z,3.86
2017-11-19T07:21:03.393Z,3.76
2017-11-19T07:26:03.232Z,4.00
2017-11-19T07:31:03.009Z,3.91
2017-11-19T07:36:03.812Z,3.99
2017-11-19T07:41:02.991Z,4.13
2017-11-19T07:46:03.802Z,3.96
2017-11-19T07:51:03.662Z,4.04
2017-11-19T07:56:03.480Z,4.04
2017-11-19T08:01:03.663Z,4.11
2017-11-19T08:06:03.485Z,4.06
2017-11-19T08:11:03.688Z,4.13
2017-11-19T08:16:03.474Z,4.06
2017-11-19T08:21:03.371Z,4.19
2017-11-19T08:26:03.224Z,4.26
2017-11-19T08:31:03.049Z,4.26
2017-11-19T08:36:03.882Z,4.43
2017-11-19T08:41:03.198Z,4.33
2017-11-19T08:46:03.028Z,4.41
2017-11-19T08:51:03.853Z,4.51
2017-11-19T08:56:03.670Z,4.54
2017-11-19T09:01:03.500Z,4.63
2017-11-19T09:06:03.371Z,4.71
2017-11-19T09:11:03.570Z,4.81
2017-11-19T09:16:03.379Z,4.81
2017-11-19T09:21:03.289Z,4.81
2017-11-19T09:26:03.228Z,4.93
2017-11-19T09:31:03.097Z,5.01
2017-11-19T09:36:04.009Z,5.00
2017-11-19T09:41:03.214Z,5.10
2017-11-19T09:46:03.004Z,5.10
2017-11-19T09:51:03.830Z,5.21
2017-11-19T09:56:03.618Z,5.30
2017-11-19T10:01:03.500Z,5.27
2017-11-19T10:06:03.339Z,5.43
2017-11-19T10:11:03.579Z,5.61
2017-11-19T10:16:03.408Z,5.63
2017-11-19T10:21:03.297Z,5.74
2017-11-19T10:26:03.214Z,5.88
2017-11-19T10:31:03.033Z,5.93
2017-11-19T10:36:03.861Z,5.98
2017-11-19T10:41:03.164Z,6.11
2017-11-19T10:46:03.967Z,5.95
2017-11-19T10:51:03.806Z,6.14
2017-11-19T10:56:03.611Z,6.03
2017-11-19T11:01:03.441Z,6.10
2017-11-19T11:06:03.320Z,5.88
2017-11-19T11:11:03.678Z,5.87
2017-11-19T11:16:03.491Z,5.90
2017-11-19T11:21:03.624Z,6.00
2017-11-19T11:26:03.534Z,6.07
2017-11-19T11:31:03.405Z,6.28
2017-11-19T11:36:03.185Z,6.52
2017-11-19T11:41:03.422Z,6.49
2017-11-19T11:46:03.430Z,6.40
2017-11-19T11:51:03.338Z,6.33
2017-11-19T11:56:03.161Z,6.40
2017-11-19T12:01:03.987Z,6.33
2017-11-19T12:06:03.835Z,6.29
2017-11-19T12:11:03.054Z,6.40
2017-11-19T12:16:03.933Z,6.45
2017-11-19T12:21:03.853Z,6.57
2017-11-19T12:26:03.669Z,6.65
2017-11-19T12:31:03.457Z,6.53
2017-11-19T12:36:03.312Z,6.63
2017-11-19T12:41:03.516Z,6.62
2017-11-19T12:46:03.394Z,6.71
2017-11-19T12:51:03.509Z,6.70
2017-11-19T12:56:03.339Z,6.61
2017-11-19T13:01:03.127Z,6.64
2017-11-19T13:06:03.987Z,6.63
2017-11-19T13:11:03.200Z,6.48
2017-11-19T13:16:03.016Z,6.37
2017-11-19T13:21:03.092Z,6.29
2017-11-19T13:26:03.928Z,6.30
2017-11-19T13:31:03.743Z,6.22
2017-11-19T13:36:03.583Z,6.25
2017-11-19T13:41:03.791Z,6.18
2017-11-19T13:46:03.581Z,6.31
2017-11-19T13:51:03.632Z,6.41
2017-11-19T13:56:03.493Z,6.57
2017-11-19T14:01:03.275Z,6.64
2017-11-19T14:06:03.190Z,6.67
2017-11-19T14:11:03.439Z,6.70
2017-11-19T14:16:03.247Z,6.61
2017-11-19T14:21:03.255Z,6.70
2017-11-19T14:26:03.068Z,6.67
2017-11-19T14:31:03.873Z,6.64
2017-11-19T14:36:03.717Z,6.59
2017-11-19T14:41:03.941Z,6.59
2017-11-19T14:46:03.769Z,6.44
2017-11-19T14:51:03.612Z,6.49
2017-11-19T14:56:03.512Z,6.39
2017-11-19T15:01:03.292Z,6.33
2017-11-19T15:06:03.076Z,6.26
2017-11-19T15:11:03.331Z,6.23
2017-11-19T15:16:03.193Z,6.16
2017-11-19T15:21:03.230Z,6.06
2017-11-19T15:26:03.173Z,6.03
2017-11-19T15:31:03.974Z,5.96
2017-11-19T15:36:03.746Z,5.86
2017-11-19T15:41:03.984Z,5.80
2017-11-19T15:46:03.751Z,5.76
2017-11-19T15:51:03.721Z,5.69
2017-11-19T15:56:03.549Z,5.69
2017-11-19T16:01:03.758Z,5.70
2017-11-19T16:06:03.575Z,5.72
2017-11-19T16:11:03.841Z,5.62
2017-11-19T16:16:03.617Z,5.65
2017-11-19T16:21:03.538Z,5.66
2017-11-19T16:26:03.342Z,5.69
2017-11-19T16:31:03.176Z,5.69
2017-11-19T16:36:03.994Z,5.51
2017-11-19T16:41:03.269Z,5.51
2017-11-19T16:46:03.243Z,5.51
2017-11-19T16:51:04.135Z,5.35
2017-11-19T16:56:03.813Z,5.34
2017-11-19T17:01:03.746Z,5.37
2017-11-19T17:06:03.557Z,5.20
2017-11-19T17:11:03.786Z,5.31
2017-11-19T17:16:03.606Z,5.27
2017-11-19T17:21:03.527Z,5.45
2017-11-19T17:26:03.374Z,5.37
2017-11-19T17:31:03.261Z,5.44
2017-11-19T17:36:03.342Z,5.45
2017-11-19T17:41:03.878Z,5.37
2017-11-19T17:46:03.769Z,5.30
2017-11-19T17:51:03.802Z,5.28
2017-11-19T17:56:03.462Z,5.13
2017-11-19T18:01:03.404Z,5.14
2017-11-19T18:06:03.350Z,5.07
2017-11-19T18:11:04.418Z,5.14
2017-11-19T18:16:04.520Z,5.06
2017-11-19T18:21:04.593Z,5.14
2017-11-19T18:26:03.316Z,5.10
2017-11-19T18:31:03.542Z,5.07
2017-11-19T18:36:04.377Z,5.00
2017-11-19T18:41:04.474Z,4.98
2017-11-19T18:46:04.316Z,4.97
2017-11-19T18:51:04.881Z,5.00
2017-11-19T18:56:04.379Z,5.06
2017-11-19T19:01:04.098Z,5.03
2017-11-19T19:06:05.039Z,4.98
2017-11-19T19:11:04.159Z,4.98
2017-11-19T19:16:04.284Z,4.80
2017-11-19T19:21:04.534Z,4.80
2017-11-19T19:26:03.836Z,4.69
2017-11-19T19:31:03.771Z,4.70
2017-11-19T19:36:03.465Z,4.87
2017-11-19T19:41:03.960Z,4.87
2017-11-19T19:46:04.480Z,4.69
2017-11-19T19:51:03.989Z,4.79
2017-11-19T19:56:04.818Z,4.80
2017-11-19T20:01:04.417Z,4.87
2017-11-19T20:06:04.848Z,4.80
2017-11-19T20:11:04.578Z,4.90
2017-11-19T20:16:03.392Z,4.93
2017-11-19T20:21:03.498Z,4.91
2017-11-19T20:26:04.009Z,5.01
2017-11-19T20:31:04.532Z,5.01
2017-11-19T20:36:03.747Z,5.10
2017-11-19T20:41:05.046Z,5.17
2017-11-19T20:46:04.201Z,5.07
2017-11-19T20:51:03.130Z,5.07
2017-11-19T20:56:04.497Z,5.08
2017-11-19T21:01:03.303Z,5.07
2017-11-19T21:06:03.110Z,4.98
2017-11-19T21:11:03.457Z,4.98
2017-11-19T21:16:03.492Z,4.90
2017-11-19T21:21:03.361Z,4.88
2017-11-19T21:26:03.378Z,4.98
2017-11-19T21:31:03.305Z,5.00
2017-11-19T21:36:03.080Z,4.93
2017-11-19T21:41:03.386Z,5.11
2017-11-19T21:46:03.190Z,5.11
2017-11-19T21:51:04.032Z,5.13
2017-11-19T21:56:03.833Z,5.14
2017-11-19T22:01:05.260Z,5.13
2017-11-19T22:06:03.570Z,5.21
2017-11-19T22:11:03.770Z,5.24
2017-11-19T22:16:03.593Z,5.23
2017-11-19T22:21:03.538Z,5.27
2017-11-19T22:26:03.329Z,5.29
2017-11-19T22:31:03.232Z,5.29
2017-11-19T22:36:03.024Z,5.29
2017-11-19T22:41:03.245Z,5.27
2017-11-19T22:46:03.059Z,5.29
2017-11-19T22:51:03.926Z,5.34
2017-11-19T22:56:03.724Z,5.29
2017-11-19T23:01:03.637Z,5.26
2017-11-19T23:06:03.470Z,5.26
2017-11-19T23:11:03.671Z,5.29
2017-11-19T23:16:03.533Z,5.19
2017-11-19T23:21:03.382Z,5.27
2017-11-19T23:26:03.169Z,5.19
2017-11-19T23:31:04.379Z,5.29
2017-11-19T23:36:03.871Z,5.34
2017-11-19T23:41:03.083Z,5.29
2017-11-19T23:46:04.299Z,5.29
2017-11-19T23:51:03.845Z,5.37
2017-11-19T23:56:03.622Z,5.39
